Time;durP1;ratioP1;P1;durP2;ratioP2;P2;SDS_P1;SDS_P2;PMS_P1;PMS_P2;Temp;Humidity;BMP_temperature;BMP_pressure;BME280_temperature;BME280_humidity;BME280_pressure;Samples;Min_cycle;Max_cycle;Signal;HPM_P1;HPM_P2
2021/10/02 00:41:21;;;;;;;30.90;11.30;;;;;;;1.70;100.00;102348.99;1774477;80;21125;-54
2021/10/02 00:46:28;;;;;;;29.80;13.08;;;;;;;1.64;100.00;102344.48;1774601;80;20909;-53
2021/10/02 00:48:54;;;;;;;42.55;17.00;;;;;;;1.59;100.00;102351.02;1752655;80;21030;-54
2021/10/02 00:51:21;;;;;;;35.68;14.75;;;;;;;1.58;100.00;102344.16;1774605;80;21004;-54
2021/10/02 00:53:47;;;;;;;29.52;14.78;;;;;;;1.55;100.00;102350.41;1774281;80;21138;-53
2021/10/02 00:56:14;;;;;;;31.33;15.63;;;;;;;1.54;100.00;102348.27;1774175;80;21027;-53
2021/10/02 00:58:45;;;;;;;28.98;12.37;;;;;;;1.54;100.00;102352.09;1774242;80;21042;-53
2021/10/02 01:01:09;;;;;;;27.45;11.48;;;;;;;1.54;100.00;102347.38;1773711;79;21537;-53
2021/10/02 01:03:56;;;;;;;28.32;13.05;;;;;;;1.51;100.00;102349.78;1774466;80;20945;-53
2021/10/02 01:06:50;;;;;;;26.97;11.70;;;;;;;1.50;100.00;102348.03;1774079;80;21078;-55
2021/10/02 01:09:57;;;;;;;26.00;12.68;;;;;;;1.50;100.00;102351.44;1774465;80;20991;-53
2021/10/02 01:12:47;;;;;;;28.02;12.58;;;;;;;1.46;100.00;102348.27;1774136;80;20964;-52
2021/10/02 01:15:34;;;;;;;22.77;11.65;;;;;;;1.38;100.00;102355.53;1774592;80;20940;-53
2021/10/02 01:18:25;;;;;;;29.70;11.48;;;;;;;1.32;100.00;102356.52;1774289;80;20905;-53
2021/10/02 01:21:26;;;;;;;21.42;10.50;;;;;;;1.27;100.00;102353.75;1774098;80;21170;-54
2021/10/02 01:24:24;;;;;;;20.52;10.53;;;;;;;1.22;100.00;102353.89;1755167;80;20940;-54
2021/10/02 01:27:18;;;;;;;26.65;10.93;;;;;;;1.18;100.00;102353.69;1774459;80;20932;-54
2021/10/02 01:29:46;;;;;;;21.33;11.38;;;;;;;1.13;100.00;102354.30;1774430;80;21028;-54
2021/10/02 01:32:22;;;;;;;24.70;12.37;;;;;;;1.11;100.00;102354.63;1774268;80;21075;-53
2021/10/02 01:48:44;;;;;;;34.40;11.25;;;;;;;1.08;100.00;102355.75;1782494;80;21162;-53
2021/10/02 01:51:12;;;;;;;24.45;10.58;;;;;;;1.04;100.00;102356.39;1782736;80;21529;-53
2021/10/02 01:53:39;;;;;;;26.42;11.25;;;;;;;1.00;100.00;102349.39;1782655;80;21497;-53
2021/10/02 01:57:15;;;;;;;18.75;10.45;;;;;;;1.07;100.00;102347.61;1797653;79;22523;-53
2021/10/02 01:59:42;;;;;;;25.43;11.20;;;;;;;1.06;100.00;102348.41;1757470;81;20924;-53
2021/10/02 02:02:08;;;;;;;16.60;10.78;;;;;;;1.08;100.00;102351.92;1729199;82;21138;-53
2021/10/02 02:04:35;;;;;;;18.57;10.25;;;;;;;1.07;100.00;102353.99;1748966;81;20921;-55
2021/10/02 02:07:02;;;;;;;22.73;10.53;;;;;;;1.08;100.00;102353.20;1749146;82;21094;-53
2021/10/02 02:09:37;;;;;;;30.62;10.85;;;;;;;1.12;100.00;102352.55;1748971;82;20996;-56
2021/10/02 02:12:01;;;;;;;18.73;11.08;;;;;;;1.11;100.00;102348.24;1748751;82;20959;-54
2021/10/02 02:14:29;;;;;;;21.73;11.78;;;;;;;1.11;100.00;102356.31;1749014;81;20992;-54
2021/10/02 02:16:56;;;;;;;16.90;10.23;;;;;;;1.10;100.00;102357.11;1748981;82;20924;-54
2021/10/02 02:19:23;;;;;;;24.60;11.10;;;;;;;1.06;100.00;102361.17;1748942;81;20964;-53
2021/10/02 02:21:49;;;;;;;19.48;10.98;;;;;;;1.03;100.00;102361.43;1748963;81;21488;-53
2021/10/02 02:24:16;;;;;;;19.17;11.30;;;;;;;0.95;100.00;102358.48;1749128;82;21525;-53
2021/10/02 02:26:43;;;;;;;20.35;10.05;;;;;;;0.89;100.00;102359.45;1749171;82;21834;-55
2021/10/02 02:29:09;;;;;;;17.92;9.98;;;;;;;0.81;100.00;102360.31;1749265;82;21548;-53
2021/10/02 02:31:36;;;;;;;16.48;10.08;;;;;;;0.76;100.00;102358.79;1682118;82;21473;-53
2021/10/02 02:34:03;;;;;;;19.15;10.60;;;;;;;0.73;100.00;102363.73;1749329;81;20948;-53
2021/10/02 02:36:30;;;;;;;17.60;10.10;;;;;;;0.69;100.00;102363.09;1719625;82;21003;-53
2021/10/02 02:38:56;;;;;;;20.27;10.28;;;;;;;0.66;100.00;102360.39;1749350;82;21142;-54
2021/10/02 02:41:23;;;;;;;19.40;10.70;;;;;;;0.64;100.00;102359.43;1749023;82;20960;-53
2021/10/02 02:43:49;;;;;;;19.57;10.30;;;;;;;0.62;100.00;102362.27;1749280;82;21022;-54
2021/10/02 02:46:23;;;;;;;15.90;9.58;;;;;;;0.57;100.00;102353.98;1749060;81;20983;-54
2021/10/02 02:48:59;;;;;;;17.30;9.60;;;;;;;0.57;100.00;102354.40;1748899;82;25844;-54
2021/10/02 02:51:34;;;;;;;18.57;10.18;;;;;;;0.55;100.00;102354.30;1749140;82;21140;-55
2021/10/02 02:54:12;;;;;;;16.55;9.85;;;;;;;0.56;100.00;102357.33;1741356;82;20952;-54
2021/10/02 02:56:46;;;;;;;16.17;9.35;;;;;;;0.59;100.00;102346.81;1740514;82;21023;-55
2021/10/02 02:59:20;;;;;;;16.85;10.15;;;;;;;0.62;100.00;102348.25;1735856;82;21013;-54
2021/10/02 03:01:50;;;;;;;16.45;9.68;;;;;;;0.60;100.00;102345.64;1736069;82;20941;-55
2021/10/02 03:04:17;;;;;;;18.82;9.38;;;;;;;0.57;100.00;102339.97;1714798;82;21852;-52
2021/10/02 03:06:47;;;;;;;20.77;10.03;;;;;;;0.55;100.00;102349.62;1735609;82;20968;-55
2021/10/02 03:09:15;;;;;;;15.68;9.13;;;;;;;0.51;100.00;102357.48;1734753;82;21008;-53
2021/10/02 03:11:45;;;;;;;17.82;9.30;;;;;;;0.48;100.00;102353.89;1735227;82;20997;-54
2021/10/02 03:14:14;;;;;;;18.82;9.60;;;;;;;0.46;100.00;102348.73;1714764;82;20926;-53
2021/10/02 03:16:42;;;;;;;16.50;9.88;;;;;;;0.46;100.00;102348.73;1690760;82;21970;-53
2021/10/02 03:19:11;;;;;;;15.68;9.55;;;;;;;0.42;100.00;102346.81;1691309;82;21659;-53
2021/10/02 03:21:39;;;;;;;16.40;9.33;;;;;;;0.38;100.00;102351.23;1735165;82;20953;-54
2021/10/02 03:24:06;;;;;;;17.52;10.08;;;;;;;0.35;100.00;102350.70;1735094;82;20925;-53
2021/10/02 03:26:33;;;;;;;13.90;9.50;;;;;;;0.33;100.00;102347.57;1735315;82;20940;-53
2021/10/02 03:29:02;;;;;;;18.87;9.98;;;;;;;0.30;100.00;102353.78;1735191;82;20948;-53
2021/10/02 03:31:28;;;;;;;13.13;9.05;;;;;;;0.26;100.00;102351.07;1735214;82;21008;-53
2021/10/02 03:33:55;;;;;;;27.80;9.40;;;;;;;0.22;100.00;102349.16;1735382;82;20913;-53
2021/10/02 03:36:22;;;;;;;15.88;9.50;;;;;;;0.18;100.00;102339.98;1735173;82;21031;-53
2021/10/02 03:38:48;;;;;;;16.82;9.40;;;;;;;0.17;100.00;102346.77;1735592;81;21020;-53
2021/10/02 03:41:15;;;;;;;11.28;8.43;;;;;;;0.14;100.00;102347.87;1735278;81;21154;-53
2021/10/02 03:43:42;;;;;;;14.90;9.78;;;;;;;0.14;100.00;102353.83;1676896;82;20976;-54
2021/10/02 03:46:09;;;;;;;11.78;8.80;;;;;;;0.11;100.00;102352.77;1735211;81;21053;-53
2021/10/02 03:48:36;;;;;;;17.00;9.50;;;;;;;0.10;100.00;102353.18;1735392;82;21483;-53
2021/10/02 03:51:02;;;;;;;15.88;9.90;;;;;;;0.11;100.00;102354.04;1714244;82;21574;-53
2021/10/02 03:53:30;;;;;;;20.95;10.85;;;;;;;0.11;100.00;102350.22;1714196;82;21897;-53
2021/10/02 03:55:58;;;;;;;23.42;11.53;;;;;;;0.11;100.00;102354.04;1736822;81;20995;-53
2021/10/02 03:58:25;;;;;;;20.40;13.55;;;;;;;0.10;100.00;102354.83;1743303;82;20980;-53
2021/10/02 04:00:52;;;;;;;25.60;15.70;;;;;;;0.09;100.00;102356.90;1743277;82;21000;-53
2021/10/02 04:03:18;;;;;;;26.07;16.02;;;;;;;0.10;100.00;102359.55;1743480;82;21007;-53
2021/10/02 04:05:45;;;;;;;27.73;15.40;;;;;;;0.12;100.00;102363.44;1743302;82;21148;-53
2021/10/02 04:08:12;;;;;;;23.38;13.98;;;;;;;0.14;100.00;102361.87;1743396;82;20909;-53
2021/10/02 04:10:40;;;;;;;23.77;15.18;;;;;;;0.20;100.00;102363.48;1743255;82;21545;-53
2021/10/02 04:13:08;;;;;;;26.40;15.25;;;;;;;0.27;100.00;102364.70;1743366;82;21537;-53
2021/10/02 04:15:35;;;;;;;17.62;12.10;;;;;;;0.34;100.00;102365.89;1743336;82;21541;-53
2021/10/02 04:18:02;;;;;;;19.87;12.53;;;;;;;0.39;100.00;102359.39;1743415;81;21389;-53
2021/10/02 04:20:30;;;;;;;18.05;10.82;;;;;;;0.48;100.00;102363.70;1743247;82;20917;-53
2021/10/02 04:22:58;;;;;;;18.65;11.73;;;;;;;0.59;100.00;102363.00;1743387;82;20967;-53
2021/10/02 04:25:25;;;;;;;19.40;11.33;;;;;;;0.70;100.00;102366.13;1743429;82;20976;-53
2021/10/02 04:27:52;;;;;;;20.15;11.73;;;;;;;0.81;100.00;102365.41;1743357;82;20971;-54
2021/10/02 04:30:19;;;;;;;20.02;11.75;;;;;;;0.95;100.00;102366.13;1743528;82;21831;-54
2021/10/02 04:32:46;;;;;;;17.55;11.45;;;;;;;1.08;100.00;102363.40;1743468;82;20937;-53
2021/10/02 04:35:12;;;;;;;18.32;10.72;;;;;;;1.21;100.00;102366.17;1743245;82;21000;-53
2021/10/02 04:37:38;;;;;;;23.92;11.45;;;;;;;1.33;100.00;102368.47;1743423;82;21003;-53
2021/10/02 04:40:07;;;;;;;21.80;11.70;;;;;;;1.47;100.00;102363.20;1743524;82;20968;-54
2021/10/02 04:42:33;;;;;;;21.77;10.80;;;;;;;1.61;100.00;102365.16;1743625;80;21065;-54
2021/10/02 04:45:00;;;;;;;17.42;10.03;;;;;;;1.75;100.00;102364.55;1743256;82;21023;-54
2021/10/02 04:47:27;;;;;;;25.45;13.93;;;;;;;1.84;100.00;102358.21;1714278;82;20975;-53
2021/10/02 04:49:54;;;;;;;18.37;12.30;;;;;;;1.95;100.00;102356.56;1743245;82;21027;-53
2021/10/02 04:52:20;;;;;;;24.45;12.95;;;;;;;2.04;100.00;102361.23;1713939;82;20979;-54
2021/10/02 04:54:47;;;;;;;30.12;12.85;;;;;;;2.11;100.00;102360.70;1713758;82;21118;-54
2021/10/02 04:57:14;;;;;;;25.10;12.73;;;;;;;2.18;100.00;102356.38;1746959;81;21506;-54
2021/10/02 04:59:40;;;;;;;21.75;12.00;;;;;;;2.25;100.00;102358.41;1749101;82;20988;-53
2021/10/02 05:02:07;;;;;;;25.92;11.40;;;;;;;2.32;100.00;102359.58;1749085;82;21014;-53
2021/10/02 05:04:35;;;;;;;19.90;10.65;;;;;;;2.40;100.00;102358.23;1749224;82;20964;-54
2021/10/02 05:07:03;;;;;;;18.75;11.33;;;;;;;2.48;100.00;102351.31;1749174;81;21486;-54
2021/10/02 05:09:31;;;;;;;20.20;11.30;;;;;;;2.56;100.00;102353.41;1698508;82;21423;-54
2021/10/02 05:11:59;;;;;;;19.82;10.45;;;;;;;2.65;100.00;102357.18;1749102;82;21517;-53
2021/10/02 05:14:27;;;;;;;23.55;11.55;;;;;;;2.73;100.00;102360.98;1749047;82;21462;-53
2021/10/02 05:16:54;;;;;;;41.13;19.90;;;;;;;2.81;100.00;102355.78;1749304;82;21540;-53
2021/10/02 05:19:22;;;;;;;41.73;19.82;;;;;;;2.90;100.00;102354.42;1749161;82;21573;-54
2021/10/02 05:21:50;;;;;;;36.63;18.15;;;;;;;3.01;100.00;102357.06;1749238;82;21541;-53
2021/10/02 05:24:16;;;;;;;30.77;17.95;;;;;;;3.11;100.00;102355.36;1749172;82;20932;-53
2021/10/02 05:26:43;;;;;;;36.40;18.48;;;;;;;3.21;100.00;102351.51;1749096;82;20987;-54
2021/10/02 05:29:09;;;;;;;52.40;27.30;;;;;;;3.34;100.00;102352.05;1749117;81;20967;-53
2021/10/02 05:31:36;;;;;;;61.55;31.05;;;;;;;3.44;100.00;102347.38;1749078;82;21132;-54
2021/10/02 05:34:02;;;;;;;49.40;25.82;;;;;;;3.56;100.00;102347.39;1749076;82;20972;-54
2021/10/02 05:36:29;;;;;;;42.17;18.67;;;;;;;3.67;100.00;102349.11;1749024;82;21007;-54
2021/10/02 05:38:55;;;;;;;29.80;14.70;;;;;;;3.82;100.00;102350.12;1749053;82;20976;-54
2021/10/02 05:41:21;;;;;;;27.30;13.22;;;;;;;3.95;100.00;102350.20;1749160;82;21463;-54
2021/10/02 05:43:48;;;;;;;20.08;10.43;;;;;;;4.08;100.00;102351.17;1749149;82;21596;-54
2021/10/02 05:46:14;;;;;;;20.43;11.35;;;;;;;4.20;100.00;102351.16;1749484;82;20940;-54
2021/10/02 05:48:40;;;;;;;27.07;10.85;;;;;;;4.33;100.00;102354.67;1749188;82;21036;-54
2021/10/02 05:51:08;;;;;;;21.95;10.88;;;;;;;4.48;100.00;102357.33;1749395;82;20924;-54
2021/10/02 05:53:34;;;;;;;18.77;10.63;;;;;;;4.64;100.00;102360.05;1721460;82;20987;-54
2021/10/02 05:56:01;;;;;;;24.23;9.53;;;;;;;4.79;100.00;102361.90;1749203;82;21144;-54
2021/10/02 05:58:28;;;;;;;21.93;9.78;;;;;;;4.96;100.00;102356.50;1749067;82;20952;-54
2021/10/02 06:00:55;;;;;;;14.43;9.48;;;;;;;5.11;100.00;102357.45;1749111;82;21513;-54
2021/10/02 06:03:21;;;;;;;15.78;8.33;;;;;;;5.27;100.00;102361.41;1749116;82;21091;-53
2021/10/02 06:05:49;;;;;;;16.55;7.60;;;;;;;5.50;100.00;102357.46;1749265;82;21477;-53
2021/10/02 06:08:16;;;;;;;14.83;7.60;;;;;;;5.68;100.00;102358.47;1749161;82;21155;-53
2021/10/02 06:10:42;;;;;;;16.32;7.85;;;;;;;5.84;99.08;102355.97;1749065;81;21580;-54
2021/10/02 06:13:08;;;;;;;13.88;8.25;;;;;;;5.95;96.74;102352.45;1749157;82;20944;-53
2021/10/02 06:15:37;;;;;;;10.08;7.15;;;;;;;6.06;95.47;102361.39;1749099;82;20877;-53
2021/10/02 06:18:03;;;;;;;13.83;6.87;;;;;;;6.21;92.57;102357.16;1749128;82;20975;-53
2021/10/02 06:20:31;;;;;;;13.28;7.58;;;;;;;6.33;90.88;102359.22;1749167;82;20940;-53
2021/10/02 06:22:58;;;;;;;16.32;8.45;;;;;;;6.44;90.05;102355.64;1749128;82;21005;-54
2021/10/02 06:25:25;;;;;;;12.82;7.90;;;;;;;6.53;88.98;102355.05;1748905;81;21509;-53
2021/10/02 06:27:53;;;;;;;14.05;8.08;;;;;;;6.60;87.65;102355.27;1749035;81;20968;-54
2021/10/02 06:30:19;;;;;;;15.10;8.23;;;;;;;6.70;87.55;102356.84;1721431;82;20991;-54
2021/10/02 06:32:47;;;;;;;10.88;7.55;;;;;;;6.78;84.38;102354.45;1749118;82;21114;-53
2021/10/02 06:35:13;;;;;;;14.23;8.08;;;;;;;6.88;82.61;102356.03;1749040;81;20870;-54
2021/10/02 06:37:40;;;;;;;10.80;7.47;;;;;;;6.99;81.36;102356.33;1749055;82;20979;-53
2021/10/02 06:40:08;;;;;;;10.20;8.13;;;;;;;7.09;80.49;102352.30;1749093;82;20967;-53
2021/10/02 06:42:35;;;;;;;11.78;7.28;;;;;;;7.17;80.41;102349.93;1749277;82;21485;-55
2021/10/02 06:45:01;;;;;;;14.13;8.23;;;;;;;7.27;79.93;102352.33;1749414;82;21857;-54
2021/10/02 06:47:28;;;;;;;11.30;7.87;;;;;;;7.36;79.68;102339.67;1749308;82;21873;-54
2021/10/02 06:49:57;;;;;;;17.00;7.78;;;;;;;7.47;79.30;102345.98;1723988;82;21039;-54
2021/10/02 06:52:28;;;;;;;15.78;7.83;;;;;;;7.61;78.85;102346.72;1749261;82;20916;-54
2021/10/02 06:54:54;;;;;;;11.55;7.50;;;;;;;7.71;78.33;102346.13;1749404;82;20972;-54
2021/10/02 06:57:22;;;;;;;9.45;6.92;;;;;;;7.82;77.45;102342.48;1718331;82;21618;-54
2021/10/02 06:59:50;;;;;;;10.75;7.10;;;;;;;7.94;73.94;102343.17;1743296;82;20984;-54
2021/10/02 07:02:18;;;;;;;13.88;7.80;;;;;;;8.05;72.62;102340.84;1743500;82;21645;-54
2021/10/02 07:04:48;;;;;;;14.05;7.95;;;;;;;8.11;73.35;102341.00;1743452;82;21546;-55
2021/10/02 07:07:12;;;;;;;15.85;7.37;;;;;;;8.20;71.36;102343.77;1713558;82;20972;-54
2021/10/02 07:09:39;;;;;;;13.53;6.22;;;;;;;8.34;68.77;102341.92;1743275;81;21056;-54
2021/10/02 07:12:06;;;;;;;11.53;6.30;;;;;;;8.45;69.17;102335.25;1714143;82;20999;-54
2021/10/02 07:14:32;;;;;;;14.18;6.50;;;;;;;8.62;69.69;102336.91;1743475;82;21059;-54
2021/10/02 07:17:00;;;;;;;11.30;7.20;;;;;;;8.74;69.37;102338.01;1743500;82;20984;-54
2021/10/02 07:19:28;;;;;;;21.95;7.42;;;;;;;8.87;69.23;102333.95;1743469;82;20948;-54
2021/10/02 07:21:56;;;;;;;11.85;6.40;;;;;;;8.99;65.62;102335.88;1743484;82;20940;-54
2021/10/02 07:24:23;;;;;;;13.35;7.03;;;;;;;9.11;65.59;102328.34;1743450;82;21485;-54
2021/10/02 07:26:50;;;;;;;10.05;6.33;;;;;;;9.24;65.05;102322.11;1743299;82;20993;-54
2021/10/02 07:29:18;;;;;;;9.63;5.75;;;;;;;9.37;65.55;102324.03;1743264;82;20945;-54
2021/10/02 07:31:44;;;;;;;7.72;6.62;;;;;;;9.52;64.75;102313.51;1743582;82;21443;-54
2021/10/02 07:34:11;;;;;;;11.35;6.85;;;;;;;9.65;62.66;102318.00;1743449;82;21195;-54
2021/10/02 07:36:39;;;;;;;12.35;5.62;;;;;;;9.79;63.97;102316.91;1743286;82;21019;-54
2021/10/02 07:39:05;;;;;;;10.95;5.40;;;;;;;9.91;63.96;102306.77;1743353;82;20961;-54
2021/10/02 07:41:32;;;;;;;16.73;5.92;;;;;;;10.04;62.42;102309.09;1713818;82;21526;-54
2021/10/02 07:44:02;;;;;;;10.80;8.23;;;;;;;10.16;60.16;102309.67;1743282;81;20968;-54
2021/10/02 07:46:32;;;;;;;7.58;5.28;;;;;;;10.31;61.46;102298.64;1743425;82;21828;-54
2021/10/02 07:48:59;;;;;;;13.75;4.92;;;;;;;10.50;60.15;102302.78;1742872;82;21003;-54
2021/10/02 07:51:26;;;;;;;9.53;5.55;;;;;;;10.65;58.30;102305.96;1743314;82;21011;-54
2021/10/02 07:53:54;;;;;;;8.80;4.83;;;;;;;10.78;57.67;102302.63;1714172;82;20940;-53
2021/10/02 07:56:20;;;;;;;4.40;4.00;;;;;;;10.95;57.27;102299.77;1743396;82;21052;-53
2021/10/02 07:58:48;;;;;;;9.83;3.92;;;;;;;11.13;55.83;102293.45;1736146;81;21913;-53
2021/10/02 08:01:16;;;;;;;8.28;3.70;;;;;;;11.28;55.48;102291.41;1735071;82;20940;-54
2021/10/02 08:03:43;;;;;;;4.70;3.25;;;;;;;11.45;52.47;102278.57;1735239;82;21015;-54
2021/10/02 08:06:10;;;;;;;8.30;3.30;;;;;;;11.65;51.63;102280.44;1735162;82;20976;-53
2021/10/02 08:08:38;;;;;;;11.18;3.15;;;;;;;11.82;50.58;102284.42;1735271;82;21321;-54
2021/10/02 08:11:07;;;;;;;6.87;3.30;;;;;;;11.96;48.50;102283.64;1735543;82;20901;-53
2021/10/02 08:13:35;;;;;;;3.22;2.50;;;;;;;12.06;48.74;102286.32;1735112;82;20890;-53
2021/10/02 08:16:01;;;;;;;2.70;2.30;;;;;;;12.20;46.99;102277.70;1735192;82;21528;-53
2021/10/02 08:18:34;;;;;;;3.58;3.08;;;;;;;12.32;47.42;102263.48;1735376;81;21648;-53
2021/10/02 08:20:58;;;;;;;3.62;2.50;;;;;;;12.50;45.19;102269.56;1734936;82;20920;-54
2021/10/02 08:23:26;;;;;;;5.08;2.58;;;;;;;12.64;45.14;102274.37;1735267;82;21928;-53
2021/10/02 08:25:54;;;;;;;4.35;2.70;;;;;;;12.78;43.50;102269.20;1735155;82;20989;-53
2021/10/02 08:28:20;;;;;;;4.50;2.72;;;;;;;12.91;41.33;102258.83;1735309;82;20985;-53
2021/10/02 08:30:50;;;;;;;5.28;2.58;;;;;;;12.98;43.05;102264.88;1735106;81;20972;-53
2021/10/02 08:33:17;;;;;;;8.43;2.85;;;;;;;13.09;41.26;102261.86;1735201;82;20929;-54
2021/10/02 08:35:45;;;;;;;6.05;2.60;;;;;;;13.10;42.69;102260.11;1735263;82;20944;-53
2021/10/02 08:38:11;;;;;;;13.13;4.55;;;;;;;13.21;41.75;102268.34;1735041;81;20921;-53
2021/10/02 08:40:41;;;;;;;12.73;5.72;;;;;;;13.35;41.89;102259.67;1735219;82;21000;-53
2021/10/02 08:43:12;;;;;;;9.28;3.25;;;;;;;13.53;42.17;102252.30;1735117;81;21008;-53
2021/10/02 08:45:39;;;;;;;8.83;7.08;;;;;;;13.65;42.23;102254.88;1735195;82;20941;-53
2021/10/02 08:48:06;;;;;;;3.33;3.05;;;;;;;13.86;41.78;102255.66;1735214;82;21150;-53
2021/10/02 08:50:32;;;;;;;12.58;2.83;;;;;;;14.02;42.81;102244.78;1735176;82;20976;-53
2021/10/02 08:53:00;;;;;;;5.85;3.30;;;;;;;14.31;41.45;102239.86;1735087;82;20897;-54
2021/10/02 08:55:26;;;;;;;8.98;3.75;;;;;;;14.53;39.24;102233.21;1735115;82;20933;-53
2021/10/02 08:57:52;;;;;;;4.70;2.47;;;;;;;14.50;39.21;102227.99;1740260;82;20889;-54
2021/10/02 09:00:23;;;;;;;5.70;2.47;;;;;;;14.56;39.22;102235.80;1749253;82;20944;-54
2021/10/02 09:02:51;;;;;;;7.67;2.58;;;;;;;14.62;38.68;102226.63;1749042;82;21510;-54
2021/10/02 09:05:21;;;;;;;3.15;2.12;;;;;;;14.68;38.45;102226.14;1749232;82;21011;-54
2021/10/02 09:07:53;;;;;;;5.58;2.80;;;;;;;14.80;37.90;102224.34;1749110;82;20885;-53
2021/10/02 09:10:21;;;;;;;5.47;2.47;;;;;;;14.78;37.62;102231.77;1749161;82;20979;-53
2021/10/02 09:12:48;;;;;;;10.38;2.90;;;;;;;14.75;37.95;102217.42;1749022;82;21218;-53
2021/10/02 09:15:17;;;;;;;9.55;2.30;;;;;;;14.83;37.91;102227.80;1749116;82;21498;-53
2021/10/02 09:17:45;;;;;;;5.80;2.35;;;;;;;14.93;37.66;102226.41;1749079;82;20980;-53
2021/10/02 09:20:14;;;;;;;2.58;2.37;;;;;;;15.00;38.43;102218.09;1749162;82;21501;-53
2021/10/02 09:23:05;;;;;;;5.92;3.70;;;;;;;15.18;37.90;102229.25;1749304;82;20988;-53
2021/10/02 09:25:35;;;;;;;6.30;3.00;;;;;;;15.26;37.28;102220.89;1722919;83;21604;-53
2021/10/02 09:28:09;;;;;;;5.50;2.30;;;;;;;15.29;36.64;102223.92;1742429;82;20925;-53
2021/10/02 09:30:39;;;;;;;7.08;2.90;;;;;;;15.31;35.87;102230.84;1749214;82;21576;-53
2021/10/02 09:33:13;;;;;;;8.20;2.52;;;;;;;15.12;36.68;102224.94;1722045;82;20944;-53
2021/10/02 09:35:42;;;;;;;8.28;5.25;;;;;;;15.16;37.27;102224.48;1749033;82;21600;-53
2021/10/02 09:38:12;;;;;;;6.47;3.75;;;;;;;15.37;37.76;102215.56;1749074;82;21007;-53
2021/10/02 09:40:39;;;;;;;2.55;2.35;;;;;;;15.56;37.53;102217.53;1721399;82;20948;-53
2021/10/02 09:43:06;;;;;;;4.17;2.55;;;;;;;15.73;37.66;102212.10;1749243;82;20924;-54
2021/10/02 09:45:38;;;;;;;2.50;2.30;;;;;;;15.97;37.59;102214.02;1749194;82;20928;-54
2021/10/02 09:48:08;;;;;;;3.60;2.75;;;;;;;16.16;36.42;102208.09;1749131;82;21587;-54
2021/10/02 09:50:39;;;;;;;7.53;2.80;;;;;;;16.36;37.01;102205.20;1722008;82;21136;-54
2021/10/02 09:53:13;;;;;;;4.85;2.60;;;;;;;16.58;35.72;102209.23;1749031;82;21725;-54
2021/10/02 09:55:50;;;;;;;8.55;2.77;;;;;;;16.66;33.86;102201.69;1749341;82;20960;-54
2021/10/02 09:58:32;;;;;;;5.00;2.98;;;;;;;16.41;33.84;102205.58;1748985;81;20975;-54
2021/10/02 10:01:01;;;;;;;7.85;2.55;;;;;;;16.40;35.20;102193.40;1749114;82;21513;-53
2021/10/02 10:03:44;;;;;;;4.75;2.40;;;;;;;16.60;35.71;102197.00;1749041;82;21498;-54
2021/10/02 10:06:25;;;;;;;5.83;2.58;;;;;;;16.80;34.44;102196.23;1749104;82;21011;-54
2021/10/02 10:09:10;;;;;;;6.40;2.00;;;;;;;16.93;33.97;102197.34;1749074;82;20932;-54
2021/10/02 10:11:52;;;;;;;2.15;1.90;;;;;;;16.94;32.21;102183.38;1741806;82;20967;-54
2021/10/02 10:14:23;;;;;;;5.12;2.17;;;;;;;16.86;34.71;102190.47;1749127;82;21282;-53
2021/10/02 10:16:52;;;;;;;1.87;1.77;;;;;;;16.95;32.56;102185.09;1749097;82;20944;-53
2021/10/02 10:19:23;;;;;;;5.25;2.15;;;;;;;16.95;34.24;102177.25;1749139;81;22272;-53
2021/10/02 10:22:14;;;;;;;2.22;2.02;;;;;;;17.09;33.34;102184.88;1749275;82;20964;-54
2021/10/02 10:24:43;;;;;;;3.10;2.02;;;;;;;17.08;32.28;102180.53;1749263;82;21536;-53
2021/10/02 10:27:10;;;;;;;3.25;2.15;;;;;;;17.07;32.82;102177.05;1747988;82;21502;-53
2021/10/02 10:29:42;;;;;;;10.95;4.37;;;;;;;17.23;33.19;102183.31;1749283;82;21154;-53
2021/10/02 10:32:10;;;;;;;5.25;2.92;;;;;;;17.31;31.24;102172.23;1749004;82;21007;-53
2021/10/02 10:34:42;;;;;;;12.40;4.00;;;;;;;17.14;33.04;102171.69;1749349;82;21545;-53
2021/10/02 10:37:10;;;;;;;2.22;2.12;;;;;;;17.21;33.59;102184.62;1749210;82;20937;-53
2021/10/02 10:39:39;;;;;;;12.25;8.38;;;;;;;17.38;33.33;102173.83;1749312;82;20991;-53
2021/10/02 10:42:07;;;;;;;14.38;6.83;;;;;;;17.63;31.63;102164.63;1749176;82;21010;-53
2021/10/02 10:44:33;;;;;;;4.05;2.70;;;;;;;17.54;31.69;102165.68;1749230;82;20936;-53
2021/10/02 10:46:59;;;;;;;7.10;4.25;;;;;;;17.40;32.74;102163.34;1749354;82;20936;-53
2021/10/02 10:49:26;;;;;;;8.35;3.27;;;;;;;17.46;31.89;102154.05;1749224;82;20932;-53
2021/10/02 10:51:54;;;;;;;2.75;2.30;;;;;;;17.58;31.23;102153.40;1721757;82;21505;-54
2021/10/02 10:54:22;;;;;;;9.45;4.00;;;;;;;17.67;33.19;102154.50;1699187;82;21636;-53
2021/10/02 10:56:52;;;;;;;5.30;3.70;;;;;;;17.68;30.23;102150.98;1749143;82;20980;-53
2021/10/02 10:59:19;;;;;;;6.80;5.22;;;;;;;17.58;30.95;102152.09;1749197;81;20983;-53
2021/10/02 11:01:47;;;;;;;11.95;6.87;;;;;;;17.47;31.39;102149.70;1721723;82;21031;-53
2021/10/02 11:04:36;;;;;;;15.50;11.38;;;;;;;17.49;31.03;102146.13;1721445;82;21517;-54
2021/10/02 11:07:05;;;;;;;7.42;5.17;;;;;;;17.62;31.58;102149.81;1749162;82;20940;-54
2021/10/02 11:09:41;;;;;;;4.05;3.15;;;;;;;17.79;32.39;102152.06;1749161;82;21520;-53
2021/10/02 11:12:11;;;;;;;37.73;20.00;;;;;;;18.01;32.61;102144.61;1749338;82;21648;-53
2021/10/02 11:14:56;;;;;;;12.30;4.35;;;;;;;18.15;29.25;102142.13;1749211;80;20983;-53
2021/10/02 11:17:42;;;;;;;8.40;2.72;;;;;;;17.87;32.02;102137.50;1749329;81;20976;-52
2021/10/02 11:20:27;;;;;;;5.00;3.00;;;;;;;17.94;33.05;102140.38;1749287;81;20928;-53
2021/10/02 11:23:41;;;;;;;6.25;3.35;;;;;;;18.15;31.81;102138.20;1749339;82;20912;-53
2021/10/02 11:26:28;;;;;;;6.83;3.35;;;;;;;18.21;30.82;102128.44;1721714;82;21023;-54
2021/10/02 11:29:06;;;;;;;6.33;2.98;;;;;;;18.27;30.39;102124.78;1749329;82;20980;-53
2021/10/02 11:31:34;;;;;;;2.85;2.52;;;;;;;18.20;29.67;102124.09;1749333;81;20972;-53
2021/10/02 11:34:01;;;;;;;3.60;2.95;;;;;;;17.84;30.63;102127.94;1749390;82;21837;-54
2021/10/02 11:36:40;;;;;;;86.08;58.38;;;;;;;17.68;30.52;102122.19;1749048;82;20968;-53
2021/10/02 11:39:30;;;;;;;134.22;91.45;;;;;;;17.67;32.48;102128.32;1749108;82;20991;-52
2021/10/02 11:42:14;;;;;;;63.35;42.10;;;;;;;17.76;29.94;102121.56;1749368;82;21462;-53
2021/10/02 11:44:49;;;;;;;198.00;132.43;;;;;;;17.65;29.87;102120.95;1749185;82;20975;-53
2021/10/02 11:47:45;;;;;;;49.65;33.35;;;;;;;17.45;31.17;102128.77;1749328;82;21162;-54
2021/10/02 11:50:14;;;;;;;92.27;63.92;;;;;;;17.48;31.55;102122.16;1719158;82;21627;-54
2021/10/02 11:52:54;;;;;;;23.35;13.08;;;;;;;17.72;32.12;102120.38;1749141;82;21086;-53
2021/10/02 11:55:42;;;;;;;11.63;7.80;;;;;;;17.72;29.41;102110.74;1721304;82;21001;-54
2021/10/02 11:58:13;;;;;;;5.15;3.83;;;;;;;17.51;30.45;102121.24;1749170;81;20917;-54
2021/10/02 12:00:57;;;;;;;7.45;3.08;;;;;;;17.42;30.70;102114.44;1749298;82;21158;-54
2021/10/02 12:03:28;;;;;;;4.60;2.12;;;;;;;17.34;30.63;102106.75;1749078;81;21403;-54
2021/10/02 12:05:57;;;;;;;2.90;2.60;;;;;;;17.33;30.39;102105.02;1749283;82;20912;-54
2021/10/02 12:08:24;;;;;;;2.47;2.27;;;;;;;17.23;30.07;102105.66;1749398;82;20945;-53
2021/10/02 12:11:08;;;;;;;22.30;10.38;;;;;;;17.04;31.47;102107.78;1749251;82;20889;-54
2021/10/02 12:13:45;;;;;;;11.12;6.53;;;;;;;17.07;31.29;102100.34;1749399;81;21060;-53
2021/10/02 12:16:16;;;;;;;9.88;5.25;;;;;;;17.15;32.43;102102.34;1749110;82;21473;-54
2021/10/02 12:19:09;;;;;;;13.48;2.25;;;;;;;17.35;33.18;102098.46;1749221;81;20932;-54
2021/10/02 12:21:59;;;;;;;37.70;21.77;;;;;;;17.53;32.38;102089.35;1749234;82;21490;-54
2021/10/02 12:24:33;;;;;;;29.27;14.53;;;;;;;17.65;30.65;102098.23;1749136;82;20987;-54
2021/10/02 12:27:07;;;;;;;8.00;6.00;;;;;;;17.65;32.51;102093.45;1748922;82;22059;-53
2021/10/02 12:29:41;;;;;;;10.58;4.15;;;;;;;17.71;32.61;102101.16;1749229;82;21915;-52